Time;durP1;ratioP1;P1;durP2;ratioP2;P2;SDS_P1;SDS_P2;PMS_P1;PMS_P2;Temp;Humidity;BMP_temperature;BMP_pressure;BME280_temperature;BME280_humidity;BME280_pressure;Samples;Min_cycle;Max_cycle;Signal;HPM_P1;HPM_P2
2021/08/08 00:00:28;;;;;;;3.53;2.28;;;19.40;77.60;;;;;;5034470;28;20026;-75
2021/08/08 00:02:54;;;;;;;3.80;2.30;;;19.40;77.80;;;;;;5034565;28;20033;-75
2021/08/08 00:05:19;;;;;;;3.58;2.58;;;19.40;78.00;;;;;;5034067;28;20562;-74
2021/08/08 00:07:45;;;;;;;3.35;2.38;;;19.40;77.90;;;;;;5014992;28;20074;-73
2021/08/08 00:10:13;;;;;;;4.43;2.60;;;19.40;78.00;;;;;;5019280;28;20406;-74
2021/08/08 00:12:41;;;;;;;2.78;2.20;;;19.30;78.10;;;;;;5033044;28;20029;-74
2021/08/08 00:15:09;;;;;;;4.88;2.70;;;19.30;78.20;;;;;;5035505;28;20032;-74
2021/08/08 00:17:35;;;;;;;3.88;2.30;;;19.30;78.30;;;;;;5027945;28;20026;-73
2021/08/08 00:20:02;;;;;;;4.20;2.55;;;19.30;78.40;;;;;;5032990;28;20017;-74
2021/08/08 00:22:28;;;;;;;3.40;2.30;;;19.30;78.50;;;;;;5034210;28;20049;-75
2021/08/08 00:24:54;;;;;;;4.75;2.45;;;19.30;78.70;;;;;;5033133;28;20041;-74
2021/08/08 00:27:19;;;;;;;3.45;2.45;;;19.30;78.60;;;;;;5032538;28;20029;-74
2021/08/08 00:29:45;;;;;;;4.25;2.45;;;19.30;78.40;;;;;;5033702;28;20356;-74
2021/08/08 00:32:10;;;;;;;3.50;2.30;;;19.30;78.50;;;;;;5033928;28;20345;-74
2021/08/08 00:34:36;;;;;;;4.20;2.40;;;19.30;78.50;;;;;;5033985;28;20064;-74
2021/08/08 00:37:02;;;;;;;4.32;2.30;;;19.30;78.50;;;;;;5033153;28;20029;-75
2021/08/08 00:39:28;;;;;;;5.30;2.20;;;19.20;78.60;;;;;;5033860;28;20064;-74
2021/08/08 00:41:55;;;;;;;4.43;2.40;;;19.20;79.20;;;;;;5033747;28;20021;-74
2021/08/08 00:44:20;;;;;;;4.18;2.40;;;19.20;78.70;;;;;;5032789;28;20033;-84
2021/08/08 00:46:46;;;;;;;3.58;2.50;;;19.20;78.90;;;;;;5034039;28;20022;-81
2021/08/08 00:49:12;;;;;;;5.65;2.50;;;19.20;79.00;;;;;;5031417;28;20028;-76
2021/08/08 00:51:39;;;;;;;3.00;2.38;;;19.20;79.10;;;;;;5032388;28;20057;-75
2021/08/08 00:54:04;;;;;;;3.30;2.40;;;19.20;79.70;;;;;;5033374;28;20447;-75
2021/08/08 00:56:30;;;;;;;5.07;2.60;;;19.20;79.20;;;;;;5026531;28;20029;-74
2021/08/08 00:58:57;;;;;;;3.05;2.20;;;19.20;79.30;;;;;;5041824;28;20032;-75
2021/08/08 01:01:27;;;;;;;2.97;2.13;;;19.10;79.30;;;;;;5032524;28;20379;-75
2021/08/08 01:03:57;;;;;;;3.47;2.58;;;19.20;79.40;;;;;;5040431;28;20466;-74
2021/08/08 01:06:46;;;;;;;3.10;2.25;;;19.20;79.40;;;;;;5037756;28;20030;-74
2021/08/08 01:09:12;;;;;;;2.92;2.22;;;19.10;79.30;;;;;;5032183;28;20061;-75
2021/08/08 01:11:40;;;;;;;3.78;2.65;;;19.10;79.20;;;;;;5030293;28;20025;-75
2021/08/08 01:14:08;;;;;;;3.83;2.30;;;19.10;79.20;;;;;;5027148;28;20070;-75
2021/08/08 01:16:35;;;;;;;4.22;2.17;;;19.10;79.20;;;;;;5030351;28;20112;-75
2021/08/08 01:19:05;;;;;;;4.35;2.35;;;19.10;79.30;;;;;;5030267;28;20029;-74
2021/08/08 01:21:32;;;;;;;3.70;2.50;;;19.10;79.30;;;;;;5030119;28;20372;-75
2021/08/08 01:24:00;;;;;;;3.50;2.28;;;19.10;79.40;;;;;;5030708;28;20045;-74
2021/08/08 01:26:28;;;;;;;4.65;2.40;;;19.00;79.40;;;;;;5030250;28;20029;-75
2021/08/08 01:28:55;;;;;;;5.53;2.47;;;19.00;79.60;;;;;;5030454;28;20120;-74
2021/08/08 01:31:22;;;;;;;5.32;2.50;;;19.00;79.70;;;;;;5030143;28;20025;-74
2021/08/08 01:33:47;;;;;;;4.13;2.55;;;19.00;79.80;;;;;;5032109;28;20036;-74
2021/08/08 01:36:17;;;;;;;3.92;2.30;;;19.00;80.50;;;;;;5031637;28;20021;-74
2021/08/08 01:38:49;;;;;;;4.35;2.40;;;19.00;80.10;;;;;;5046796;28;20029;-73
2021/08/08 01:41:17;;;;;;;6.30;2.40;;;18.90;80.20;;;;;;5052865;28;20021;-78
2021/08/08 01:43:48;;;;;;;5.57;2.28;;;18.90;80.30;;;;;;5053071;28;20021;-75
2021/08/08 01:46:15;;;;;;;5.43;2.42;;;18.90;80.30;;;;;;5047857;28;20029;-76
2021/08/08 01:48:45;;;;;;;3.45;2.33;;;18.90;80.50;;;;;;5035166;28;20022;-75
2021/08/08 01:51:11;;;;;;;2.88;2.20;;;18.80;80.60;;;;;;5030612;28;20041;-75
2021/08/08 01:53:37;;;;;;;4.00;2.45;;;18.80;80.60;;;;;;5033662;28;20032;-75
2021/08/08 01:56:04;;;;;;;5.20;2.60;;;18.80;81.30;;;;;;5033699;28;20029;-76
2021/08/08 01:58:30;;;;;;;4.70;2.53;;;18.80;80.90;;;;;;5033430;28;20026;-75
2021/08/08 02:00:56;;;;;;;6.00;2.55;;;18.80;81.20;;;;;;5035205;28;20022;-75
2021/08/08 02:03:31;;;;;;;4.78;2.72;;;18.80;81.30;;;;;;5034998;28;20441;-75
2021/08/08 02:05:57;;;;;;;4.10;2.60;;;18.80;81.30;;;;;;5033694;28;20026;-73
2021/08/08 02:08:22;;;;;;;3.58;2.58;;;18.70;81.20;;;;;;5034966;28;20476;-74
2021/08/08 02:10:48;;;;;;;5.78;2.90;;;18.70;81.50;;;;;;5034557;28;20079;-74
2021/08/08 02:13:14;;;;;;;4.45;2.50;;;18.70;81.60;;;;;;5034413;28;20025;-74
2021/08/08 02:15:39;;;;;;;5.88;2.80;;;18.60;81.70;;;;;;5032874;28;20044;-74
2021/08/08 02:18:05;;;;;;;4.38;2.97;;;18.70;81.90;;;;;;5033020;28;20476;-73
2021/08/08 02:20:31;;;;;;;4.30;2.53;;;18.60;81.80;;;;;;5032916;28;20029;-75
2021/08/08 02:22:56;;;;;;;3.35;2.33;;;18.60;81.90;;;;;;5035564;28;20036;-74
2021/08/08 02:25:22;;;;;;;4.15;2.60;;;18.60;82.00;;;;;;5036485;28;20115;-73
2021/08/08 02:27:48;;;;;;;4.80;2.65;;;18.60;82.10;;;;;;5035205;28;20025;-73
2021/08/08 02:30:14;;;;;;;3.47;2.53;;;18.60;82.10;;;;;;5034180;28;20112;-74
2021/08/08 02:32:39;;;;;;;3.38;2.42;;;18.60;82.30;;;;;;5033974;28;20061;-75
2021/08/08 02:35:06;;;;;;;4.30;2.60;;;18.60;82.50;;;;;;5034469;28;20437;-75
2021/08/08 02:37:31;;;;;;;4.32;2.67;;;18.70;82.60;;;;;;5031479;28;20056;-75
2021/08/08 02:39:57;;;;;;;3.53;2.30;;;18.70;82.60;;;;;;5034581;28;20498;-75
2021/08/08 02:42:22;;;;;;;4.00;2.42;;;18.70;82.50;;;;;;5035390;28;20386;-75
2021/08/08 02:44:48;;;;;;;4.10;2.60;;;18.70;82.50;;;;;;5035724;28;20021;-75
2021/08/08 02:47:14;;;;;;;3.85;2.88;;;18.70;82.60;;;;;;5032815;28;20017;-75
2021/08/08 02:49:40;;;;;;;4.28;2.83;;;18.80;82.70;;;;;;5033980;28;20060;-76
2021/08/08 02:52:06;;;;;;;4.40;2.90;;;18.70;82.70;;;;;;5032443;28;20018;-75
2021/08/08 02:54:32;;;;;;;4.75;2.50;;;18.70;83.00;;;;;;5033712;28;20017;-75
2021/08/08 02:56:58;;;;;;;4.05;2.70;;;18.70;82.90;;;;;;5032733;28;20732;-75
2021/08/08 02:59:24;;;;;;;3.38;2.65;;;18.80;83.00;;;;;;5033505;28;20029;-75
2021/08/08 03:01:49;;;;;;;4.05;2.72;;;18.80;83.20;;;;;;5032223;28;20427;-75
2021/08/08 03:04:15;;;;;;;4.28;2.80;;;18.90;83.60;;;;;;5033337;28;20467;-75
2021/08/08 03:06:47;;;;;;;3.80;2.80;;;19.10;83.60;;;;;;5033010;28;20399;-75
2021/08/08 03:09:14;;;;;;;3.70;2.75;;;19.40;83.20;;;;;;5033100;28;20018;-75
2021/08/08 03:11:45;;;;;;;6.40;2.88;;;19.70;82.80;;;;;;5033464;28;20124;-75
2021/08/08 03:14:15;;;;;;;3.33;2.50;;;19.90;81.90;;;;;;5034187;28;20029;-74
2021/08/08 03:16:42;;;;;;;3.67;2.42;;;20.20;81.10;;;;;;5047929;28;20018;-76
2021/08/08 03:19:10;;;;;;;3.45;2.50;;;20.40;80.30;;;;;;5051172;28;20029;-75
2021/08/08 03:21:35;;;;;;;4.03;2.28;;;20.60;79.40;;;;;;5054218;28;20033;-75
2021/08/08 03:24:01;;;;;;;3.33;2.40;;;20.90;78.40;;;;;;5054339;28;20037;-75
2021/08/08 03:26:28;;;;;;;3.58;2.42;;;21.00;77.90;;;;;;5044775;28;20025;-76
2021/08/08 03:28:53;;;;;;;3.38;2.22;;;21.30;77.10;;;;;;5035958;28;20116;-75
2021/08/08 03:31:19;;;;;;;4.13;2.33;;;21.50;76.30;;;;;;5034505;28;20049;-75
2021/08/08 03:33:45;;;;;;;3.42;2.33;;;21.80;75.70;;;;;;5031855;28;20461;-75
2021/08/08 03:36:11;;;;;;;5.65;2.30;;;22.00;74.70;;;;;;5033098;28;20217;-75
2021/08/08 03:38:38;;;;;;;2.78;1.92;;;22.10;74.50;;;;;;5031893;28;20367;-76
2021/08/08 03:41:04;;;;;;;3.38;2.30;;;22.40;73.70;;;;;;5031381;28;20399;-76
2021/08/08 03:43:30;;;;;;;4.72;2.60;;;22.60;73.10;;;;;;5034555;28;20037;-75
2021/08/08 03:45:55;;;;;;;3.58;2.20;;;22.80;73.10;;;;;;5035024;28;20017;-75
2021/08/08 03:48:21;;;;;;;4.78;2.28;;;23.10;72.00;;;;;;5033033;28;20049;-75
2021/08/08 03:50:47;;;;;;;4.00;2.15;;;23.30;70.90;;;;;;5032799;28;20032;-76
2021/08/08 03:53:13;;;;;;;3.03;2.33;;;23.60;70.00;;;;;;5034212;28;20419;-75
2021/08/08 03:55:38;;;;;;;3.58;2.28;;;23.70;69.30;;;;;;5034168;28;20021;-75
2021/08/08 03:58:04;;;;;;;4.82;2.35;;;23.90;68.70;;;;;;5031634;28;20156;-76
2021/08/08 04:00:30;;;;;;;4.22;2.22;;;24.10;68.50;;;;;;5032223;28;20032;-74
2021/08/08 04:02:55;;;;;;;3.03;2.20;;;24.30;67.70;;;;;;5034665;28;20040;-74
2021/08/08 04:05:22;;;;;;;4.30;2.40;;;24.50;67.00;;;;;;5034214;28;20398;-75
2021/08/08 04:07:47;;;;;;;4.82;2.17;;;24.60;66.60;;;;;;5032119;28;20467;-75
2021/08/08 04:10:13;;;;;;;3.00;2.10;;;24.70;65.90;;;;;;5032698;28;20025;-75
2021/08/08 04:12:39;;;;;;;3.42;2.20;;;24.90;65.60;;;;;;5033159;28;20029;-74
2021/08/08 04:15:06;;;;;;;3.40;1.92;;;25.10;65.20;;;;;;5033990;28;20364;-73
2021/08/08 04:17:31;;;;;;;3.08;2.17;;;25.30;64.50;;;;;;5042952;28;20036;-73
2021/08/08 04:19:57;;;;;;;4.10;2.40;;;25.60;64.20;;;;;;5036499;28;20025;-76
2021/08/08 04:22:23;;;;;;;4.13;2.30;;;25.80;63.60;;;;;;5034484;28;20021;-76
2021/08/08 04:24:49;;;;;;;3.65;2.30;;;26.00;62.90;;;;;;5032816;28;20459;-76
2021/08/08 04:27:14;;;;;;;4.13;2.45;;;26.20;62.60;;;;;;5031285;28;20025;-76
2021/08/08 04:29:41;;;;;;;2.97;2.33;;;26.20;61.90;;;;;;5053252;28;20028;-76
2021/08/08 04:32:07;;;;;;;3.00;2.20;;;26.20;62.20;;;;;;5046244;28;20517;-76
2021/08/08 04:34:33;;;;;;;3.50;2.30;;;26.30;61.20;;;;;;5034332;28;20030;-81
2021/08/08 04:37:00;;;;;;;3.28;2.35;;;26.50;61.30;;;;;;5034181;28;20105;-83
2021/08/08 04:39:25;;;;;;;3.20;2.17;;;26.70;60.70;;;;;;5033772;28;20096;-74
2021/08/08 04:41:54;;;;;;;3.53;2.38;;;26.70;60.00;;;;;;5048638;28;20113;-74
2021/08/08 04:44:22;;;;;;;3.47;1.90;;;26.90;59.60;;;;;;5053106;28;20029;-69
2021/08/08 04:46:48;;;;;;;3.72;2.28;;;27.00;59.30;;;;;;5052620;28;20379;-73
2021/08/08 04:49:14;;;;;;;2.83;2.03;;;27.10;58.90;;;;;;5053912;28;20049;-72
2021/08/08 04:51:41;;;;;;;3.80;2.40;;;27.20;58.90;;;;;;5058357;28;20076;-74
2021/08/08 04:54:08;;;;;;;3.65;2.30;;;27.30;58.00;;;;;;5043535;28;20068;-72
2021/08/08 04:56:34;;;;;;;3.78;2.38;;;27.40;57.90;;;;;;5035742;28;20035;-73
2021/08/08 04:59:02;;;;;;;4.20;2.28;;;27.50;57.80;;;;;;5036077;28;20108;-72
2021/08/08 05:01:29;;;;;;;3.80;2.38;;;27.60;57.60;;;;;;5032648;28;20514;-73
2021/08/08 05:03:55;;;;;;;3.47;2.20;;;27.80;57.40;;;;;;5032860;28;20456;-74
2021/08/08 05:06:20;;;;;;;4.68;2.30;;;27.90;56.90;;;;;;5033568;28;20034;-73
2021/08/08 05:08:46;;;;;;;5.32;2.50;;;28.10;56.50;;;;;;5033329;28;20065;-74
2021/08/08 05:11:19;;;;;;;3.97;2.70;;;28.20;56.70;;;;;;5034048;28;20099;-73
2021/08/08 05:13:45;;;;;;;4.68;2.83;;;28.30;55.80;;;;;;5033862;28;20064;-73
2021/08/08 05:16:11;;;;;;;4.22;2.35;;;28.40;55.40;;;;;;5032485;28;20022;-74
2021/08/08 05:18:36;;;;;;;3.55;2.28;;;28.40;55.60;;;;;;5032387;28;20451;-74
2021/08/08 05:21:02;;;;;;;3.22;2.20;;;28.60;55.30;;;;;;5033445;28;20021;-74
2021/08/08 05:23:28;;;;;;;2.85;2.05;;;28.70;54.80;;;;;;5032162;28;20060;-73
2021/08/08 05:25:59;;;;;;;4.07;2.65;;;28.80;55.00;;;;;;5033531;28;20060;-74
2021/08/08 05:28:26;;;;;;;4.07;2.17;;;29.00;54.60;;;;;;5036770;28;20025;-74
2021/08/08 05:30:52;;;;;;;3.38;2.45;;;29.10;54.40;;;;;;5036232;28;20056;-74
2021/08/08 05:33:17;;;;;;;3.38;2.28;;;29.20;54.20;;;;;;5037543;28;20021;-74
2021/08/08 05:35:43;;;;;;;4.55;3.08;;;29.40;54.00;;;;;;5036161;28;20091;-74
2021/08/08 05:38:09;;;;;;;4.05;2.40;;;29.60;53.70;;;;;;5037596;28;20017;-74
2021/08/08 05:40:35;;;;;;;3.40;2.22;;;29.70;53.50;;;;;;5037580;28;20029;-74
2021/08/08 05:43:00;;;;;;;4.95;2.38;;;29.90;53.10;;;;;;5036037;28;20029;-74
2021/08/08 05:45:26;;;;;;;3.08;2.40;;;30.00;52.60;;;;;;5037170;28;20071;-74
2021/08/08 05:47:52;;;;;;;3.72;2.40;;;30.00;52.60;;;;;;5037303;28;20057;-74
2021/08/08 05:50:18;;;;;;;5.03;2.30;;;30.20;52.50;;;;;;5036002;28;20082;-74
2021/08/08 05:52:51;;;;;;;4.38;2.55;;;30.40;52.30;;;;;;5035876;28;20548;-74
2021/08/08 05:55:18;;;;;;;3.35;2.60;;;30.70;52.20;;;;;;5037358;28;20036;-74
2021/08/08 05:57:44;;;;;;;3.95;2.25;;;30.90;51.90;;;;;;5035819;28;20341;-74
2021/08/08 06:00:10;;;;;;;2.72;2.20;;;31.00;51.70;;;;;;5036725;28;20032;-74
2021/08/08 06:02:36;;;;;;;3.13;2.50;;;31.10;51.30;;;;;;5036658;28;20017;-74
2021/08/08 06:05:02;;;;;;;3.50;2.38;;;31.30;51.00;;;;;;5036690;28;20040;-74
2021/08/08 06:07:28;;;;;;;3.88;2.40;;;31.40;50.80;;;;;;5035253;28;20120;-74
2021/08/08 06:09:54;;;;;;;3.75;2.38;;;31.50;50.20;;;;;;5036824;28;20033;-74
2021/08/08 06:12:19;;;;;;;3.72;1.98;;;31.60;49.90;;;;;;5036543;28;20025;-74
2021/08/08 06:14:45;;;;;;;4.35;2.63;;;31.80;50.00;;;;;;5035576;28;20021;-74
2021/08/08 06:17:11;;;;;;;4.50;2.22;;;31.90;49.60;;;;;;5036981;28;20018;-74
2021/08/08 06:19:36;;;;;;;4.25;2.20;;;32.00;49.40;;;;;;5035503;28;20474;-74
2021/08/08 06:22:03;;;;;;;2.78;1.77;;;32.10;49.10;;;;;;5037517;28;20104;-75
2021/08/08 06:24:28;;;;;;;4.80;2.28;;;32.10;49.00;;;;;;5037069;28;20483;-75
2021/08/08 06:26:54;;;;;;;2.30;2.00;;;32.20;49.40;;;;;;5041845;28;20083;-75
2021/08/08 06:29:19;;;;;;;3.08;1.90;;;32.40;49.40;;;;;;5045377;28;20021;-73
2021/08/08 06:31:45;;;;;;;3.92;2.20;;;32.60;49.20;;;;;;5042383;28;20034;-74
2021/08/08 06:34:11;;;;;;;4.22;2.10;;;32.90;48.90;;;;;;5035556;28;20143;-74
2021/08/08 06:36:36;;;;;;;3.08;1.80;;;32.90;48.40;;;;;;5037255;28;20018;-75
2021/08/08 06:39:06;;;;;;;4.05;2.00;;;32.80;47.80;;;;;;5036355;28;20018;-75
2021/08/08 06:41:32;;;;;;;2.25;1.80;;;32.60;47.20;;;;;;5035821;28;20453;-75
2021/08/08 06:43:58;;;;;;;4.32;1.92;;;32.60;47.50;;;;;;5036511;28;20065;-75
2021/08/08 06:46:24;;;;;;;2.10;1.80;;;32.60;47.60;;;;;;5036391;28;20057;-75
2021/08/08 06:48:50;;;;;;;2.28;1.92;;;32.70;47.60;;;;;;5036227;28;20114;-75
2021/08/08 06:51:15;;;;;;;3.30;2.05;;;32.90;47.40;;;;;;5036632;28;20021;-74
2021/08/08 06:53:41;;;;;;;3.53;1.77;;;32.80;46.90;;;;;;5036836;28;20460;-74
2021/08/08 06:56:07;;;;;;;2.35;1.90;;;32.70;46.60;;;;;;5034849;28;20359;-74
2021/08/08 06:58:32;;;;;;;3.13;2.00;;;32.70;47.30;;;;;;5036012;28;20028;-74
2021/08/08 07:00:58;;;;;;;4.15;1.90;;;32.90;47.30;;;;;;5036019;28;20029;-75
2021/08/08 07:03:24;;;;;;;2.75;2.10;;;33.20;47.20;;;;;;5036112;28;20039;-74
2021/08/08 07:05:49;;;;;;;1.90;1.60;;;33.30;46.60;;;;;;5035752;28;20041;-74
2021/08/08 07:08:15;;;;;;;2.55;2.10;;;33.30;46.30;;;;;;5036317;28;20046;-75
2021/08/08 07:10:41;;;;;;;2.90;1.80;;;33.40;46.10;;;;;;5035592;28;20025;-73
2021/08/08 07:13:06;;;;;;;2.50;2.00;;;33.40;46.40;;;;;;5034976;28;20120;-73
2021/08/08 07:15:32;;;;;;;2.22;1.90;;;33.70;46.20;;;;;;5035927;28;20021;-73
2021/08/08 07:17:58;;;;;;;2.22;1.83;;;33.90;46.00;;;;;;5036835;28;20061;-74
2021/08/08 07:20:23;;;;;;;2.30;1.92;;;33.90;46.10;;;;;;5037956;28;20018;-74
2021/08/08 07:22:49;;;;;;;2.42;2.00;;;33.90;45.80;;;;;;5037107;28;20056;-74
2021/08/08 07:25:15;;;;;;;3.08;1.83;;;34.00;45.80;;;;;;5037650;28;20043;-74
2021/08/08 07:27:41;;;;;;;3.25;2.10;;;34.10;45.70;;;;;;5036863;28;20091;-74
2021/08/08 07:30:07;;;;;;;3.75;1.90;;;34.20;44.90;;;;;;5037469;28;20029;-73
2021/08/08 07:32:33;;;;;;;2.08;1.88;;;34.20;44.90;;;;;;5035324;28;20349;-73
2021/08/08 07:35:00;;;;;;;4.60;2.15;;;34.20;45.20;;;;;;5035699;28;20019;-73
2021/08/08 07:37:26;;;;;;;3.85;1.95;;;34.40;45.60;;;;;;5036113;28;20398;-73
2021/08/08 07:39:51;;;;;;;3.03;2.10;;;34.50;45.10;;;;;;5035591;28;20030;-73
2021/08/08 07:42:17;;;;;;;4.18;2.20;;;34.70;44.90;;;;;;5036440;28;20080;-73
2021/08/08 07:44:43;;;;;;;2.97;2.10;;;34.60;44.80;;;;;;5034819;28;20025;-74
2021/08/08 07:47:09;;;;;;;3.28;2.13;;;34.70;44.70;;;;;;5034982;28;20052;-74
2021/08/08 07:49:34;;;;;;;2.38;2.13;;;34.70;44.40;;;;;;5037153;28;20108;-74
2021/08/08 07:52:00;;;;;;;2.30;1.80;;;34.70;44.50;;;;;;5036461;28;20025;-74
2021/08/08 07:54:26;;;;;;;2.58;2.00;;;34.90;44.60;;;;;;5036262;28;20036;-74
2021/08/08 07:56:51;;;;;;;4.03;1.70;;;35.00;44.20;;;;;;5038756;28;20018;-73
2021/08/08 07:59:17;;;;;;;3.22;1.85;;;35.10;44.30;;;;;;5040129;28;20448;-75
2021/08/08 08:01:43;;;;;;;2.10;1.80;;;35.00;43.80;;;;;;5043256;28;20040;-73
2021/08/08 08:04:09;;;;;;;4.03;2.47;;;34.90;44.10;;;;;;5042293;28;20485;-73
2021/08/08 08:06:34;;;;;;;2.20;1.80;;;34.70;43.50;;;;;;5044401;28;20028;-73
2021/08/08 08:09:00;;;;;;;3.13;2.30;;;34.60;43.40;;;;;;5042472;28;20053;-74
2021/08/08 08:11:26;;;;;;;3.03;1.92;;;34.40;43.40;;;;;;5034824;28;20496;-74
2021/08/08 08:13:52;;;;;;;2.72;1.83;;;34.40;43.80;;;;;;5034558;28;20033;-74
2021/08/08 08:16:18;;;;;;;2.25;1.70;;;34.50;44.40;;;;;;5034477;28;20566;-74
2021/08/08 08:18:43;;;;;;;2.70;1.70;;;34.70;44.70;;;;;;5034225;28;20367;-74
2021/08/08 08:21:09;;;;;;;2.35;2.00;;;34.70;43.50;;;;;;5034350;28;20104;-74
2021/08/08 08:23:35;;;;;;;2.63;1.90;;;34.70;43.30;;;;;;5033246;28;20025;-74
2021/08/08 08:26:00;;;;;;;3.30;1.92;;;34.70;43.40;;;;;;5033269;28;20017;-74
2021/08/08 08:28:29;;;;;;;4.80;2.20;;;34.70;44.20;;;;;;5034603;28;20018;-74
2021/08/08 08:30:58;;;;;;;2.50;1.88;;;34.70;43.60;;;;;;5032919;28;20028;-74
2021/08/08 08:33:25;;;;;;;2.00;1.65;;;34.70;43.90;;;;;;5034225;28;20017;-74
2021/08/08 08:35:50;;;;;;;2.75;2.00;;;35.10;43.90;;;;;;5032738;28;20033;-74
2021/08/08 08:38:16;;;;;;;2.25;1.75;;;35.20;43.90;;;;;;5034143;28;20021;-74
2021/08/08 08:40:43;;;;;;;2.97;1.88;;;35.30;43.70;;;;;;5032823;28;20061;-74
2021/08/08 08:43:09;;;;;;;4.43;2.08;;;35.30;43.20;;;;;;5033911;28;20025;-75
2021/08/08 08:45:44;;;;;;;2.88;1.80;;;35.20;43.60;;;;;;5032733;28;20112;-75
2021/08/08 08:48:10;;;;;;;2.45;1.80;;;35.40;43.60;;;;;;5032861;28;20025;-75
2021/08/08 08:50:36;;;;;;;2.97;1.70;;;35.40;43.30;;;;;;5032733;28;20029;-75
2021/08/08 08:53:03;;;;;;;3.83;2.67;;;35.50;43.20;;;;;;5032592;28;20442;-75
2021/08/08 08:55:29;;;;;;;2.22;1.50;;;35.30;42.80;;;;;;5032697;28;20021;-75
2021/08/08 08:57:55;;;;;;;2.60;1.80;;;35.30;43.00;;;;;;5032621;28;20028;-75
2021/08/08 09:00:24;;;;;;;1.73;1.50;;;35.30;42.80;;;;;;5033085;28;20025;-75
2021/08/08 09:02:51;;;;;;;3.22;1.75;;;35.30;42.60;;;;;;5032287;28;20136;-74
2021/08/08 09:05:19;;;;;;;3.38;1.52;;;35.40;42.70;;;;;;5032808;28;20375;-74
2021/08/08 09:07:45;;;;;;;3.20;2.10;;;35.50;42.90;;;;;;5032195;28;20411;-74
2021/08/08 09:10:15;;;;;;;2.17;1.60;;;35.50;42.50;;;;;;5033704;28;20017;-75
2021/08/08 09:12:41;;;;;;;2.40;1.55;;;35.50;42.70;;;;;;5033865;28;20028;-74
2021/08/08 09:15:08;;;;;;;4.80;1.98;;;35.50;42.60;;;;;;5032515;28;20029;-74
2021/08/08 09:17:38;;;;;;;2.00;1.50;;;35.70;42.50;;;;;;5032165;28;20025;-74
2021/08/08 09:20:10;;;;;;;1.85;1.65;;;35.80;43.10;;;;;;5033691;28;20029;-74
2021/08/08 09:22:40;;;;;;;2.58;1.52;;;35.80;42.90;;;;;;5033808;28;20022;-74
2021/08/08 09:25:09;;;;;;;2.55;1.35;;;36.00;42.40;;;;;;5033505;28;20140;-74
2021/08/08 09:27:37;;;;;;;3.38;1.70;;;36.00;41.90;;;;;;5033798;28;20049;-74
2021/08/08 09:30:23;;;;;;;3.40;1.60;;;35.90;42.10;;;;;;5033812;28;20452;-74
2021/08/08 09:33:02;;;;;;;2.30;1.50;;;36.00;42.30;;;;;;5033476;28;20061;-74
2021/08/08 09:35:37;;;;;;;2.63;1.48;;;36.20;42.50;;;;;;5032695;28;20047;-74
2021/08/08 09:38:09;;;;;;;1.90;1.40;;;36.30;42.10;;;;;;5037670;28;20022;-73
2021/08/08 09:40:40;;;;;;;2.80;1.30;;;36.40;41.70;;;;;;5041347;28;20394;-74
2021/08/08 09:43:07;;;;;;;2.90;1.40;;;36.40;41.50;;;;;;5043224;28;20089;-74
2021/08/08 09:45:42;;;;;;;1.40;1.30;;;36.30;41.50;;;;;;5036123;28;20022;-74
2021/08/08 09:48:11;;;;;;;1.67;1.45;;;36.20;41.40;;;;;;5032173;28;20056;-74
2021/08/08 09:50:45;;;;;;;2.10;1.50;;;36.10;41.60;;;;;;5033577;28;20057;-74
2021/08/08 09:53:20;;;;;;;3.80;1.57;;;36.10;41.60;;;;;;5033698;28;20026;-73
2021/08/08 09:55:46;;;;;;;2.67;1.23;;;36.10;41.60;;;;;;5033417;28;20021;-74
2021/08/08 09:58:22;;;;;;;1.30;1.20;;;36.10;42.50;;;;;;5033356;28;20104;-74
2021/08/08 10:00:57;;;;;;;2.05;1.40;;;36.20;41.70;;;;;;5033656;28;20021;-74
2021/08/08 10:03:23;;;;;;;4.18;1.50;;;36.10;42.00;;;;;;5032256;28;20352;-74
2021/08/08 10:05:52;;;;;;;1.30;1.10;;;36.10;42.00;;;;;;5033309;28;20026;-74
2021/08/08 10:08:21;;;;;;;3.15;1.40;;;36.10;41.80;;;;;;5032989;28;20048;-74
2021/08/08 10:10:51;;;;;;;2.28;1.13;;;36.20;42.00;;;;;;5031894;28;20025;-74
2021/08/08 10:13:36;;;;;;;4.78;1.30;;;36.10;42.20;;;;;;5034181;28;20440;-74
2021/08/08 10:16:04;;;;;;;;;;;36.10;42.00;;;;;;5035943;28;20056;-74
2021/08/08 10:18:37;;;;;;;2.55;1.30;;;36.20;42.00;;;;;;5035385;28;19905;-74
2021/08/08 10:21:05;;;;;;;1.93;1.20;;;36.00;41.60;;;;;;5036717;28;20363;-75
2021/08/08 10:23:35;;;;;;;2.50;1.60;;;36.00;42.00;;;;;;5036392;28;20280;-75
2021/08/08 10:26:00;;;;;;;1.38;1.17;;;36.00;41.30;;;;;;5035557;28;20028;-75
2021/08/08 10:28:27;;;;;;;2.38;1.10;;;36.10;41.90;;;;;;5035050;28;20021;-75
2021/08/08 10:30:53;;;;;;;1.27;1.00;;;36.30;42.60;;;;;;5035093;28;20021;-75
2021/08/08 10:33:19;;;;;;;1.88;1.02;;;36.40;41.90;;;;;;5035047;28;20036;-75
2021/08/08 10:35:47;;;;;;;2.08;1.30;;;36.30;42.10;;;;;;5035042;28;20017;-75
2021/08/08 10:38:14;;;;;;;2.10;1.27;;;36.30;41.50;;;;;;5035019;28;20018;-75
2021/08/08 10:40:41;;;;;;;2.50;1.20;;;36.20;41.20;;;;;;5035037;28;20084;-75
2021/08/08 10:43:09;;;;;;;1.73;1.02;;;36.30;41.60;;;;;;5036270;28;20033;-75
2021/08/08 10:45:37;;;;;;;1.20;1.10;;;36.30;42.00;;;;;;5034903;28;20025;-76
2021/08/08 10:48:04;;;;;;;2.25;1.10;;;36.40;42.00;;;;;;5034821;28;20036;-76
2021/08/08 10:50:44;;;;;;;1.23;1.02;;;36.20;41.60;;;;;;5035884;28;20372;-74
2021/08/08 10:53:23;;;;;;;2.05;1.17;;;36.10;41.60;;;;;;5036139;28;20032;-74
2021/08/08 10:56:10;;;;;;;1.35;1.10;;;36.10;41.70;;;;;;5034699;28;20052;-74
2021/08/08 10:58:41;;;;;;;1.60;1.20;;;36.10;42.00;;;;;;5034763;28;20027;-75
2021/08/08 11:01:19;;;;;;;1.88;0.90;;;36.30;42.30;;;;;;5036366;28;20351;-75
2021/08/08 11:03:56;;;;;;;2.90;1.20;;;36.30;41.50;;;;;;5034587;28;20026;-75
2021/08/08 11:06:26;;;;;;;2.15;1.10;;;36.50;42.20;;;;;;5035024;28;20056;-75
2021/08/08 11:08:55;;;;;;;1.85;1.35;;;36.40;41.70;;;;;;5034775;28;20052;-74
2021/08/08 11:11:32;;;;;;;2.28;0.90;;;36.20;41.90;;;;;;5036384;28;20029;-75
2021/08/08 11:14:16;;;;;;;2.83;1.00;;;36.20;41.90;;;;;;5039891;28;20036;-75
2021/08/08 11:16:45;;;;;;;7.90;1.35;;;36.10;42.30;;;;;;5040593;28;20064;-73
2021/08/08 11:19:12;;;;;;;2.28;1.00;;;36.10;42.50;;;;;;5038823;28;20029;-74
2021/08/08 11:21:39;;;;;;;3.03;1.02;;;36.00;42.30;;;;;;5038360;28;20029;-73
2021/08/08 11:24:09;;;;;;;3.25;0.98;;;35.90;42.90;;;;;;5035812;28;20029;-74
2021/08/08 11:26:35;;;;;;;1.10;1.00;;;35.80;43.00;;;;;;5033817;28;20082;-73
2021/08/08 11:29:04;;;;;;;1.73;1.30;;;35.70;42.90;;;;;;5035261;28;20017;-73
2021/08/08 11:31:34;;;;;;;1.05;0.90;;;35.30;42.70;;;;;;5035142;28;20578;-73
2021/08/08 11:34:09;;;;;;;2.72;1.10;;;34.80;43.20;;;;;;5035263;28;20044;-73
2021/08/08 11:36:41;;;;;;;1.55;1.00;;;34.00;44.70;;;;;;5035538;28;20029;-74
2021/08/08 11:39:12;;;;;;;1.20;1.00;;;33.40;45.30;;;;;;5035372;28;20396;-73
2021/08/08 11:41:39;;;;;;;1.55;1.25;;;32.90;45.90;;;;;;5034146;28;20387;-73
2021/08/08 11:44:15;;;;;;;1.98;1.30;;;32.50;46.70;;;;;;5035007;28;20076;-73
2021/08/08 11:46:48;;;;;;;2.47;1.30;;;32.10;48.20;;;;;;5033646;28;20024;-73
2021/08/08 11:49:21;;;;;;;2.97;1.40;;;31.80;48.30;;;;;;5034169;28;20028;-74
2021/08/08 11:51:57;;;;;;;1.83;1.25;;;31.50;48.80;;;;;;5035177;28;20372;-74
2021/08/08 11:54:26;;;;;;;2.65;1.20;;;31.20;49.20;;;;;;5033593;28;20564;-74
2021/08/08 11:56:51;;;;;;;2.72;1.40;;;31.00;49.50;;;;;;5033579;28;20032;-74
2021/08/08 11:59:28;;;;;;;2.60;1.48;;;30.80;49.70;;;;;;5034270;28;20018;-74
2021/08/08 12:02:11;;;;;;;2.20;1.50;;;30.60;50.40;;;;;;5034884;28;20124;-74
2021/08/08 12:04:41;;;;;;;3.00;1.30;;;30.30;50.20;;;;;;5034942;28;20040;-74
2021/08/08 12:07:09;;;;;;;1.77;1.30;;;30.00;50.50;;;;;;5033104;28;20124;-74
2021/08/08 12:09:35;;;;;;;4.22;1.38;;;29.90;51.10;;;;;;5033262;28;20021;-74
2021/08/08 12:12:03;;;;;;;3.78;1.50;;;29.80;51.70;;;;;;5033710;28;20332;-74
2021/08/08 12:14:37;;;;;;;2.50;1.30;;;29.70;51.90;;;;;;5034342;28;20025;-74
2021/08/08 12:17:12;;;;;;;2.55;1.60;;;29.60;51.90;;;;;;5033186;28;20025;-74
2021/08/08 12:19:40;;;;;;;3.22;1.40;;;29.50;51.90;;;;;;5034561;28;20108;-74
2021/08/08 12:22:27;;;;;;;2.13;1.40;;;29.50;52.10;;;;;;5033007;28;20025;-74
2021/08/08 12:25:00;;;;;;;3.67;1.50;;;29.40;52.20;;;;;;5065876;28;20045;-74
2021/08/08 12:27:33;;;;;;;2.35;1.50;;;29.30;52.60;;;;;;5033396;28;20032;-74
2021/08/08 12:30:00;;;;;;;2.45;1.60;;;29.20;52.80;;;;;;5032926;28;20028;-74
2021/08/08 12:32:35;;;;;;;3.65;1.70;;;29.30;53.00;;;;;;5034100;28;20105;-74
2021/08/08 12:35:18;;;;;;;4.80;2.17;;;29.30;53.00;;;;;;5034273;28;20422;-74
2021/08/08 12:37:46;;;;;;;3.33;1.90;;;29.20;52.90;;;;;;5034034;28;20021;-74
2021/08/08 12:40:20;;;;;;;2.92;1.63;;;29.10;53.00;;;;;;5032959;28;20028;-74
2021/08/08 12:42:46;;;;;;;3.35;1.67;;;29.00;53.20;;;;;;5035305;28;20490;-74
2021/08/08 12:45:13;;;;;;;2.22;1.60;;;29.00;53.40;;;;;;5033512;28;20033;-74
2021/08/08 12:47:43;;;;;;;7.43;2.00;;;28.90;54.30;;;;;;5034444;28;20041;-74
2021/08/08 12:50:19;;;;;;;5.88;1.83;;;29.00;54.10;;;;;;5035805;28;20091;-75